sensor_id;sensor_type;location;lat;lon;timestamp;P1;durP1;ratioP1;P2;durP2;ratioP2
4323;SDS011;2175;51.018;6.994;2022-07-03T00:00:31;25.03;;;9.60;;
4323;SDS011;2175;51.018;6.994;2022-07-03T00:02:56;21.13;;;8.17;;
4323;SDS011;2175;51.018;6.994;2022-07-03T00:05:22;22.27;;;8.70;;
4323;SDS011;2175;51.018;6.994;2022-07-03T00:07:48;16.90;;;6.40;;
4323;SDS011;2175;51.018;6.994;2022-07-03T00:10:13;10.73;;;4.30;;
4323;SDS011;2175;51.018;6.994;2022-07-03T00:12:39;7.10;;;3.30;;
4323;SDS011;2175;51.018;6.994;2022-07-03T00:15:05;12.33;;;5.07;;
4323;SDS011;2175;51.018;6.994;2022-07-03T00:17:31;14.63;;;5.60;;
4323;SDS011;2175;51.018;6.994;2022-07-03T00:19:56;14.00;;;5.53;;
4323;SDS011;2175;51.018;6.994;2022-07-03T00:22:24;15.17;;;5.60;;
4323;SDS011;2175;51.018;6.994;2022-07-03T00:24:51;7.63;;;3.17;;
4323;SDS011;2175;51.018;6.994;2022-07-03T00:27:24;9.87;;;3.60;;
4323;SDS011;2175;51.018;6.994;2022-07-03T00:29:50;7.23;;;2.90;;
4323;SDS011;2175;51.018;6.994;2022-07-03T00:32:24;5.70;;;2.40;;
4323;SDS011;2175;51.018;6.994;2022-07-03T00:34:51;4.50;;;2.87;;
4323;SDS011;2175;51.018;6.994;2022-07-03T00:37:18;3.60;;;2.60;;
4323;SDS011;2175;51.018;6.994;2022-07-03T00:39:44;4.10;;;2.63;;
4323;SDS011;2175;51.018;6.994;2022-07-03T00:42:10;5.27;;;2.67;;
4323;SDS011;2175;51.018;6.994;2022-07-03T00:47:11;5.00;;;2.67;;
4323;SDS011;2175;51.018;6.994;2022-07-03T00:49:38;5.63;;;2.77;;
4323;SDS011;2175;51.018;6.994;2022-07-03T00:52:04;7.13;;;3.30;;
4323;SDS011;2175;51.018;6.994;2022-07-03T00:54:32;4.60;;;2.63;;
4323;SDS011;2175;51.018;6.994;2022-07-03T00:56:59;4.23;;;2.60;;
4323;SDS011;2175;51.018;6.994;2022-07-03T00:59:25;4.93;;;2.70;;
4323;SDS011;2175;51.018;6.994;2022-07-03T01:01:53;6.57;;;3.07;;
4323;SDS011;2175;51.018;6.994;2022-07-03T01:07:18;5.20;;;3.00;;
4323;SDS011;2175;51.018;6.994;2022-07-03T01:18:13;6.67;;;3.33;;
4323;SDS011;2175;51.018;6.994;2022-07-03T01:20:39;9.97;;;3.37;;
4323;SDS011;2175;51.018;6.994;2022-07-03T01:23:20;6.17;;;3.37;;
4323;SDS011;2175;51.018;6.994;2022-07-03T01:25:55;7.77;;;3.80;;
4323;SDS011;2175;51.018;6.994;2022-07-03T01:28:26;5.40;;;3.60;;
4323;SDS011;2175;51.018;6.994;2022-07-03T01:30:52;7.33;;;3.97;;
4323;SDS011;2175;51.018;6.994;2022-07-03T01:33:19;7.77;;;3.60;;
4323;SDS011;2175;51.018;6.994;2022-07-03T01:38:32;7.50;;;3.60;;
4323;SDS011;2175;51.018;6.994;2022-07-03T01:41:00;6.47;;;3.83;;
4323;SDS011;2175;51.018;6.994;2022-07-03T01:43:31;5.90;;;3.60;;
4323;SDS011;2175;51.018;6.994;2022-07-03T01:45:59;10.13;;;3.87;;
4323;SDS011;2175;51.018;6.994;2022-07-03T01:48:29;8.17;;;3.73;;
4323;SDS011;2175;51.018;6.994;2022-07-03T01:50:56;8.73;;;4.00;;
4323;SDS011;2175;51.018;6.994;2022-07-03T01:53:26;9.53;;;5.13;;
4323;SDS011;2175;51.018;6.994;2022-07-03T01:55:58;7.30;;;4.30;;
4323;SDS011;2175;51.018;6.994;2022-07-03T01:58:25;7.20;;;3.93;;
4323;SDS011;2175;51.018;6.994;2022-07-03T02:03:29;6.57;;;3.47;;
4323;SDS011;2175;51.018;6.994;2022-07-03T02:06:04;7.20;;;4.03;;
4323;SDS011;2175;51.018;6.994;2022-07-03T02:08:40;9.10;;;3.73;;
4323;SDS011;2175;51.018;6.994;2022-07-03T02:14:01;8.97;;;3.63;;
4323;SDS011;2175;51.018;6.994;2022-07-03T02:22:11;5.53;;;4.03;;
4323;SDS011;2175;51.018;6.994;2022-07-03T02:24:43;10.60;;;4.23;;
4323;SDS011;2175;51.018;6.994;2022-07-03T02:27:20;7.37;;;4.00;;
4323;SDS011;2175;51.018;6.994;2022-07-03T02:32:20;7.10;;;3.60;;
4323;SDS011;2175;51.018;6.994;2022-07-03T02:45:40;5.87;;;3.60;;
4323;SDS011;2175;51.018;6.994;2022-07-03T02:48:24;9.40;;;3.60;;
4323;SDS011;2175;51.018;6.994;2022-07-03T02:50:58;7.10;;;3.47;;
4323;SDS011;2175;51.018;6.994;2022-07-03T02:53:41;7.20;;;3.67;;
4323;SDS011;2175;51.018;6.994;2022-07-03T02:56:31;6.30;;;3.70;;
4323;SDS011;2175;51.018;6.994;2022-07-03T02:59:20;7.00;;;3.30;;
4323;SDS011;2175;51.018;6.994;2022-07-03T03:04:38;5.50;;;3.50;;
4323;SDS011;2175;51.018;6.994;2022-07-03T03:07:12;6.87;;;3.83;;
4323;SDS011;2175;51.018;6.994;2022-07-03T03:09:47;4.63;;;3.47;;
4323;SDS011;2175;51.018;6.994;2022-07-03T03:12:13;6.50;;;4.07;;
4323;SDS011;2175;51.018;6.994;2022-07-03T03:14:41;6.83;;;4.03;;
4323;SDS011;2175;51.018;6.994;2022-07-03T03:17:23;6.67;;;3.80;;
4323;SDS011;2175;51.018;6.994;2022-07-03T03:19:51;6.37;;;3.83;;
4323;SDS011;2175;51.018;6.994;2022-07-03T03:24:57;8.60;;;4.10;;
4323;SDS011;2175;51.018;6.994;2022-07-03T03:27:23;5.43;;;4.00;;
4323;SDS011;2175;51.018;6.994;2022-07-03T03:29:49;4.97;;;3.80;;
4323;SDS011;2175;51.018;6.994;2022-07-03T03:32:16;10.93;;;3.37;;
4323;SDS011;2175;51.018;6.994;2022-07-03T03:34:42;6.43;;;4.10;;
4323;SDS011;2175;51.018;6.994;2022-07-03T03:37:10;6.27;;;3.83;;
4323;SDS011;2175;51.018;6.994;2022-07-03T03:39:36;5.93;;;3.60;;
4323;SDS011;2175;51.018;6.994;2022-07-03T03:42:02;8.37;;;3.67;;
4323;SDS011;2175;51.018;6.994;2022-07-03T03:44:29;5.90;;;3.50;;
4323;SDS011;2175;51.018;6.994;2022-07-03T03:46:55;4.03;;;3.03;;
4323;SDS011;2175;51.018;6.994;2022-07-03T03:49:20;7.40;;;4.07;;
4323;SDS011;2175;51.018;6.994;2022-07-03T03:51:46;8.73;;;4.10;;
4323;SDS011;2175;51.018;6.994;2022-07-03T03:54:12;5.40;;;3.77;;
4323;SDS011;2175;51.018;6.994;2022-07-03T03:56:38;6.50;;;3.73;;
4323;SDS011;2175;51.018;6.994;2022-07-03T03:59:04;4.10;;;3.40;;
4323;SDS011;2175;51.018;6.994;2022-07-03T04:01:29;5.97;;;3.37;;
4323;SDS011;2175;51.018;6.994;2022-07-03T04:03:55;6.70;;;3.67;;
4323;SDS011;2175;51.018;6.994;2022-07-03T04:06:22;7.13;;;4.07;;
4323;SDS011;2175;51.018;6.994;2022-07-03T04:08:48;5.37;;;3.83;;
4323;SDS011;2175;51.018;6.994;2022-07-03T04:11:13;6.07;;;3.83;;
4323;SDS011;2175;51.018;6.994;2022-07-03T04:13:39;5.67;;;3.80;;
4323;SDS011;2175;51.018;6.994;2022-07-03T04:16:04;5.80;;;3.40;;
4323;SDS011;2175;51.018;6.994;2022-07-03T04:18:30;5.70;;;3.30;;
4323;SDS011;2175;51.018;6.994;2022-07-03T04:20:56;9.70;;;4.40;;
4323;SDS011;2175;51.018;6.994;2022-07-03T04:23:21;6.07;;;3.97;;
4323;SDS011;2175;51.018;6.994;2022-07-03T04:25:47;6.07;;;3.70;;
4323;SDS011;2175;51.018;6.994;2022-07-03T04:28:12;4.70;;;3.80;;
4323;SDS011;2175;51.018;6.994;2022-07-03T04:30:39;6.67;;;3.47;;
4323;SDS011;2175;51.018;6.994;2022-07-03T04:33:05;4.63;;;3.13;;
4323;SDS011;2175;51.018;6.994;2022-07-03T04:35:30;4.33;;;3.20;;
4323;SDS011;2175;51.018;6.994;2022-07-03T04:37:56;5.07;;;3.50;;
4323;SDS011;2175;51.018;6.994;2022-07-03T04:40:22;8.07;;;3.27;;
4323;SDS011;2175;51.018;6.994;2022-07-03T04:42:47;4.20;;;3.50;;
4323;SDS011;2175;51.018;6.994;2022-07-03T04:45:13;5.67;;;3.60;;
4323;SDS011;2175;51.018;6.994;2022-07-03T04:47:38;9.00;;;3.80;;
4323;SDS011;2175;51.018;6.994;2022-07-03T04:50:04;7.13;;;3.83;;
4323;SDS011;2175;51.018;6.994;2022-07-03T04:52:30;8.23;;;3.40;;
4323;SDS011;2175;51.018;6.994;2022-07-03T04:54:56;6.30;;;3.47;;
4323;SDS011;2175;51.018;6.994;2022-07-03T04:57:22;5.00;;;3.33;;
4323;SDS011;2175;51.018;6.994;2022-07-03T04:59:48;6.27;;;3.60;;
4323;SDS011;2175;51.018;6.994;2022-07-03T05:02:13;5.27;;;3.80;;
4323;SDS011;2175;51.018;6.994;2022-07-03T05:04:39;4.27;;;3.60;;
4323;SDS011;2175;51.018;6.994;2022-07-03T05:07:04;4.40;;;3.47;;
4323;SDS011;2175;51.018;6.994;2022-07-03T05:09:30;4.87;;;3.43;;
4323;SDS011;2175;51.018;6.994;2022-07-03T05:11:56;5.83;;;3.23;;
4323;SDS011;2175;51.018;6.994;2022-07-03T05:14:21;9.40;;;3.63;;
4323;SDS011;2175;51.018;6.994;2022-07-03T05:16:47;10.00;;;3.80;;
4323;SDS011;2175;51.018;6.994;2022-07-03T05:19:12;7.20;;;3.63;;
4323;SDS011;2175;51.018;6.994;2022-07-03T05:21:38;6.70;;;3.17;;
4323;SDS011;2175;51.018;6.994;2022-07-03T05:24:04;6.70;;;3.13;;
4323;SDS011;2175;51.018;6.994;2022-07-03T05:26:29;4.83;;;3.53;;
4323;SDS011;2175;51.018;6.994;2022-07-03T05:28:55;5.87;;;3.33;;
4323;SDS011;2175;51.018;6.994;2022-07-03T05:31:21;5.10;;;3.77;;
4323;SDS011;2175;51.018;6.994;2022-07-03T05:33:46;6.87;;;4.10;;
4323;SDS011;2175;51.018;6.994;2022-07-03T05:36:12;6.93;;;3.47;;
4323;SDS011;2175;51.018;6.994;2022-07-03T05:38:37;5.53;;;3.47;;
4323;SDS011;2175;51.018;6.994;2022-07-03T05:41:21;13.53;;;3.90;;
4323;SDS011;2175;51.018;6.994;2022-07-03T05:43:47;7.67;;;3.57;;
4323;SDS011;2175;51.018;6.994;2022-07-03T05:46:13;6.07;;;3.43;;
4323;SDS011;2175;51.018;6.994;2022-07-03T05:48:38;8.50;;;3.80;;
4323;SDS011;2175;51.018;6.994;2022-07-03T05:51:04;6.90;;;3.20;;
4323;SDS011;2175;51.018;6.994;2022-07-03T05:53:29;7.83;;;4.00;;
4323;SDS011;2175;51.018;6.994;2022-07-03T05:55:55;4.33;;;2.93;;
4323;SDS011;2175;51.018;6.994;2022-07-03T05:58:22;4.60;;;3.40;;
4323;SDS011;2175;51.018;6.994;2022-07-03T06:00:48;10.93;;;3.37;;
4323;SDS011;2175;51.018;6.994;2022-07-03T06:03:13;7.20;;;3.47;;
4323;SDS011;2175;51.018;6.994;2022-07-03T06:05:39;5.97;;;3.40;;
4323;SDS011;2175;51.018;6.994;2022-07-03T06:08:05;9.03;;;3.43;;
4323;SDS011;2175;51.018;6.994;2022-07-03T06:10:31;4.80;;;3.40;;
4323;SDS011;2175;51.018;6.994;2022-07-03T06:12:57;6.47;;;3.17;;
4323;SDS011;2175;51.018;6.994;2022-07-03T06:15:23;5.70;;;3.17;;
4323;SDS011;2175;51.018;6.994;2022-07-03T06:17:49;5.90;;;3.50;;
4323;SDS011;2175;51.018;6.994;2022-07-03T06:20:15;5.37;;;3.00;;
4323;SDS011;2175;51.018;6.994;2022-07-03T06:22:41;4.23;;;3.40;;
4323;SDS011;2175;51.018;6.994;2022-07-03T06:25:07;7.50;;;3.97;;
4323;SDS011;2175;51.018;6.994;2022-07-03T06:27:32;7.73;;;3.87;;
4323;SDS011;2175;51.018;6.994;2022-07-03T06:29:58;8.87;;;3.50;;
4323;SDS011;2175;51.018;6.994;2022-07-03T06:32:24;10.07;;;3.40;;
4323;SDS011;2175;51.018;6.994;2022-07-03T06:34:50;6.70;;;3.23;;
4323;SDS011;2175;51.018;6.994;2022-07-03T06:37:16;4.77;;;2.93;;
4323;SDS011;2175;51.018;6.994;2022-07-03T06:39:41;19.53;;;3.80;;
4323;SDS011;2175;51.018;6.994;2022-07-03T06:42:07;11.47;;;4.60;;
4323;SDS011;2175;51.018;6.994;2022-07-03T06:44:33;9.10;;;3.77;;
4323;SDS011;2175;51.018;6.994;2022-07-03T06:46:58;6.10;;;3.60;;
4323;SDS011;2175;51.018;6.994;2022-07-03T06:49:28;7.07;;;2.90;;
4323;SDS011;2175;51.018;6.994;2022-07-03T06:51:54;8.67;;;3.60;;
4323;SDS011;2175;51.018;6.994;2022-07-03T06:54:20;14.07;;;3.50;;
4323;SDS011;2175;51.018;6.994;2022-07-03T06:56:45;8.93;;;3.17;;
4323;SDS011;2175;51.018;6.994;2022-07-03T06:59:11;8.03;;;3.53;;
4323;SDS011;2175;51.018;6.994;2022-07-03T07:01:37;5.90;;;3.17;;
4323;SDS011;2175;51.018;6.994;2022-07-03T07:04:02;10.87;;;3.47;;
4323;SDS011;2175;51.018;6.994;2022-07-03T07:06:28;7.77;;;3.53;;
4323;SDS011;2175;51.018;6.994;2022-07-03T07:08:54;5.50;;;3.77;;
4323;SDS011;2175;51.018;6.994;2022-07-03T07:11:19;9.43;;;3.67;;
4323;SDS011;2175;51.018;6.994;2022-07-03T07:13:45;9.00;;;3.33;;
4323;SDS011;2175;51.018;6.994;2022-07-03T07:16:11;6.80;;;2.90;;
4323;SDS011;2175;51.018;6.994;2022-07-03T07:18:36;11.30;;;3.67;;
4323;SDS011;2175;51.018;6.994;2022-07-03T07:21:04;7.23;;;3.70;;
4323;SDS011;2175;51.018;6.994;2022-07-03T07:23:30;12.17;;;4.50;;
4323;SDS011;2175;51.018;6.994;2022-07-03T07:25:55;10.57;;;4.30;;
4323;SDS011;2175;51.018;6.994;2022-07-03T07:28:21;11.77;;;4.30;;
4323;SDS011;2175;51.018;6.994;2022-07-03T07:30:47;13.63;;;4.30;;
4323;SDS011;2175;51.018;6.994;2022-07-03T07:33:12;10.47;;;4.50;;
4323;SDS011;2175;51.018;6.994;2022-07-03T07:35:38;10.53;;;3.80;;
4323;SDS011;2175;51.018;6.994;2022-07-03T07:38:03;8.00;;;3.40;;
4323;SDS011;2175;51.018;6.994;2022-07-03T07:40:29;7.50;;;3.90;;
4323;SDS011;2175;51.018;6.994;2022-07-03T07:42:55;6.90;;;3.93;;
4323;SDS011;2175;51.018;6.994;2022-07-03T07:45:20;5.83;;;3.27;;
4323;SDS011;2175;51.018;6.994;2022-07-03T07:47:47;8.60;;;3.80;;
4323;SDS011;2175;51.018;6.994;2022-07-03T07:50:12;8.87;;;3.27;;
4323;SDS011;2175;51.018;6.994;2022-07-03T07:52:39;7.30;;;3.20;;
4323;SDS011;2175;51.018;6.994;2022-07-03T07:55:05;6.20;;;3.60;;
4323;SDS011;2175;51.018;6.994;2022-07-03T07:57:38;10.63;;;3.23;;
4323;SDS011;2175;51.018;6.994;2022-07-03T08:00:06;8.13;;;3.03;;
4323;SDS011;2175;51.018;6.994;2022-07-03T08:02:35;9.23;;;3.30;;
4323;SDS011;2175;51.018;6.994;2022-07-03T08:05:19;9.20;;;3.33;;
4323;SDS011;2175;51.018;6.994;2022-07-03T08:08:01;7.23;;;3.47;;
4323;SDS011;2175;51.018;6.994;2022-07-03T08:10:46;5.23;;;3.33;;
4323;SDS011;2175;51.018;6.994;2022-07-03T08:13:14;6.73;;;3.07;;
4323;SDS011;2175;51.018;6.994;2022-07-03T08:15:41;8.23;;;3.40;;
4323;SDS011;2175;51.018;6.994;2022-07-03T08:18:08;8.43;;;3.80;;
4323;SDS011;2175;51.018;6.994;2022-07-03T08:20:34;6.10;;;3.87;;
4323;SDS011;2175;51.018;6.994;2022-07-03T08:23:01;12.27;;;4.27;;
4323;SDS011;2175;51.018;6.994;2022-07-03T08:25:27;10.93;;;3.30;;
4323;SDS011;2175;51.018;6.994;2022-07-03T08:27:54;7.13;;;2.90;;
4323;SDS011;2175;51.018;6.994;2022-07-03T08:30:20;7.17;;;3.43;;
4323;SDS011;2175;51.018;6.994;2022-07-03T08:32:50;10.10;;;3.60;;
4323;SDS011;2175;51.018;6.994;2022-07-03T08:35:17;4.77;;;3.10;;
4323;SDS011;2175;51.018;6.994;2022-07-03T08:37:42;6.80;;;2.90;;
4323;SDS011;2175;51.018;6.994;2022-07-03T08:40:12;5.50;;;3.30;;
4323;SDS011;2175;51.018;6.994;2022-07-03T08:42:41;9.43;;;3.80;;
4323;SDS011;2175;51.018;6.994;2022-07-03T08:45:13;4.67;;;2.50;;
4323;SDS011;2175;51.018;6.994;2022-07-03T08:47:41;8.00;;;2.97;;
4323;SDS011;2175;51.018;6.994;2022-07-03T08:50:11;5.10;;;2.63;;
4323;SDS011;2175;51.018;6.994;2022-07-03T08:52:39;5.03;;;3.40;;
4323;SDS011;2175;51.018;6.994;2022-07-03T08:55:05;8.73;;;3.07;;
4323;SDS011;2175;51.018;6.994;2022-07-03T08:57:32;6.20;;;2.83;;
4323;SDS011;2175;51.018;6.994;2022-07-03T09:00:01;8.17;;;3.50;;
4323;SDS011;2175;51.018;6.994;2022-07-03T09:02:32;6.23;;;3.00;;
4323;SDS011;2175;51.018;6.994;2022-07-03T09:04:58;5.60;;;2.70;;
4323;SDS011;2175;51.018;6.994;2022-07-03T09:07:26;7.70;;;3.30;;
4323;SDS011;2175;51.018;6.994;2022-07-03T09:09:55;6.53;;;2.60;;
4323;SDS011;2175;51.018;6.994;2022-07-03T09:12:20;6.87;;;3.03;;
4323;SDS011;2175;51.018;6.994;2022-07-03T09:14:47;5.20;;;2.70;;
4323;SDS011;2175;51.018;6.994;2022-07-03T09:17:12;4.33;;;2.53;;
4323;SDS011;2175;51.018;6.994;2022-07-03T09:19:47;4.00;;;2.50;;
4323;SDS011;2175;51.018;6.994;2022-07-03T09:22:20;5.40;;;3.10;;
4323;SDS011;2175;51.018;6.994;2022-07-03T09:24:54;4.90;;;3.10;;
4323;SDS011;2175;51.018;6.994;2022-07-03T09:27:28;5.83;;;2.77;;
4323;SDS011;2175;51.018;6.994;2022-07-03T09:30:01;4.90;;;2.40;;
4323;SDS011;2175;51.018;6.994;2022-07-03T09:37:48;5.23;;;2.00;;
4323;SDS011;2175;51.018;6.994;2022-07-03T09:40:18;6.90;;;2.10;;
4323;SDS011;2175;51.018;6.994;2022-07-03T09:42:57;9.73;;;2.47;;
4323;SDS011;2175;51.018;6.994;2022-07-03T09:45:48;4.70;;;2.13;;
4323;SDS011;2175;51.018;6.994;2022-07-03T09:48:25;3.97;;;2.10;;
4323;SDS011;2175;51.018;6.994;2022-07-03T09:51:07;5.10;;;2.40;;
4323;SDS011;2175;51.018;6.994;2022-07-03T09:53:49;3.57;;;2.10;;
4323;SDS011;2175;51.018;6.994;2022-07-03T09:56:16;2.80;;;1.73;;
4323;SDS011;2175;51.018;6.994;2022-07-03T09:59:01;5.57;;;2.17;;
4323;SDS011;2175;51.018;6.994;2022-07-03T10:01:28;5.87;;;2.00;;
4323;SDS011;2175;51.018;6.994;2022-07-03T10:03:54;4.00;;;1.90;;
4323;SDS011;2175;51.018;6.994;2022-07-03T10:06:44;3.50;;;1.80;;
4323;SDS011;2175;51.018;6.994;2022-07-03T10:09:14;5.83;;;1.73;;
4323;SDS011;2175;51.018;6.994;2022-07-03T10:11:41;4.10;;;2.10;;
4323;SDS011;2175;51.018;6.994;2022-07-03T10:14:08;6.20;;;2.00;;
4323;SDS011;2175;51.018;6.994;2022-07-03T10:16:38;5.20;;;2.10;;
4323;SDS011;2175;51.018;6.994;2022-07-03T10:19:05;3.93;;;2.17;;
4323;SDS011;2175;51.018;6.994;2022-07-03T10:21:32;3.33;;;2.00;;
4323;SDS011;2175;51.018;6.994;2022-07-03T10:24:02;6.50;;;2.50;;
4323;SDS011;2175;51.018;6.994;2022-07-03T10:26:28;5.37;;;2.43;;
4323;SDS011;2175;51.018;6.994;2022-07-03T10:28:54;8.23;;;2.57;;
4323;SDS011;2175;51.018;6.994;2022-07-03T10:31:21;9.80;;;2.43;;
4323;SDS011;2175;51.018;6.994;2022-07-03T10:33:49;4.00;;;2.10;;
4323;SDS011;2175;51.018;6.994;2022-07-03T10:36:16;5.30;;;2.30;;
4323;SDS011;2175;51.018;6.994;2022-07-03T10:38:42;6.60;;;2.30;;
4323;SDS011;2175;51.018;6.994;2022-07-03T10:41:22;3.60;;;2.00;;
4323;SDS011;2175;51.018;6.994;2022-07-03T10:44:33;6.17;;;2.30;;
4323;SDS011;2175;51.018;6.994;2022-07-03T10:50:03;6.70;;;2.53;;
4323;SDS011;2175;51.018;6.994;2022-07-03T10:52:33;6.90;;;2.20;;
4323;SDS011;2175;51.018;6.994;2022-07-03T10:54:59;8.23;;;2.40;;
4323;SDS011;2175;51.018;6.994;2022-07-03T10:57:26;4.63;;;2.30;;
4323;SDS011;2175;51.018;6.994;2022-07-03T11:02:18;6.60;;;2.53;;
4323;SDS011;2175;51.018;6.994;2022-07-03T11:15:34;3.90;;;2.60;;
4323;SDS011;2175;51.018;6.994;2022-07-03T11:25:47;6.17;;;2.93;;
4323;SDS011;2175;51.018;6.994;2022-07-03T11:36:11;8.80;;;3.37;;
4323;SDS011;2175;51.018;6.994;2022-07-03T11:38:40;5.87;;;2.50;;
4323;SDS011;2175;51.018;6.994;2022-07-03T11:41:06;9.67;;;2.90;;
4323;SDS011;2175;51.018;6.994;2022-07-03T11:43:33;10.90;;;2.70;;
4323;SDS011;2175;51.018;6.994;2022-07-03T11:45:59;4.20;;;2.50;;
4323;SDS011;2175;51.018;6.994;2022-07-03T11:48:26;3.00;;;2.13;;
4323;SDS011;2175;51.018;6.994;2022-07-03T11:50:52;3.77;;;2.20;;
4323;SDS011;2175;51.018;6.994;2022-07-03T11:53:26;4.53;;;2.23;;
4323;SDS011;2175;51.018;6.994;2022-07-03T11:56:00;3.93;;;2.10;;
4323;SDS011;2175;51.018;6.994;2022-07-03T11:58:32;9.10;;;2.00;;
4323;SDS011;2175;51.018;6.994;2022-07-03T12:03:47;3.03;;;1.90;;
4323;SDS011;2175;51.018;6.994;2022-07-03T12:06:13;6.73;;;2.17;;
4323;SDS011;2175;51.018;6.994;2022-07-03T12:08:38;3.77;;;1.90;;
4323;SDS011;2175;51.018;6.994;2022-07-03T12:11:11;6.17;;;2.23;;
4323;SDS011;2175;51.018;6.994;2022-07-03T12:13:40;5.17;;;2.20;;
4323;SDS011;2175;51.018;6.994;2022-07-03T12:16:07;3.87;;;2.07;;
4323;SDS011;2175;51.018;6.994;2022-07-03T12:18:50;4.90;;;1.97;;
4323;SDS011;2175;51.018;6.994;2022-07-03T12:21:21;4.00;;;2.13;;
4323;SDS011;2175;51.018;6.994;2022-07-03T12:23:55;7.33;;;2.47;;
4323;SDS011;2175;51.018;6.994;2022-07-03T12:26:31;7.10;;;2.43;;
4323;SDS011;2175;51.018;6.994;2022-07-03T12:28:58;9.97;;;3.23;;
4323;SDS011;2175;51.018;6.994;2022-07-03T12:31:26;9.00;;;2.90;;
4323;SDS011;2175;51.018;6.994;2022-07-03T12:33:52;5.40;;;2.43;;
4323;SDS011;2175;51.018;6.994;2022-07-03T12:36:18;5.77;;;2.77;;
4323;SDS011;2175;51.018;6.994;2022-07-03T12:38:47;8.37;;;2.47;;
4323;SDS011;2175;51.018;6.994;2022-07-03T12:41:13;8.40;;;2.43;;
4323;SDS011;2175;51.018;6.994;2022-07-03T12:43:41;5.23;;;2.40;;
4323;SDS011;2175;51.018;6.994;2022-07-03T12:48:53;15.23;;;2.60;;
4323;SDS011;2175;51.018;6.994;2022-07-03T12:51:39;7.60;;;3.20;;
4323;SDS011;2175;51.018;6.994;2022-07-03T12:54:22;4.83;;;2.83;;
4323;SDS011;2175;51.018;6.994;2022-07-03T12:57:03;5.03;;;2.20;;
4323;SDS011;2175;51.018;6.994;2022-07-03T13:00:05;4.93;;;2.57;;
4323;SDS011;2175;51.018;6.994;2022-07-03T13:02:35;7.03;;;2.43;;
4323;SDS011;2175;51.018;6.994;2022-07-03T13:07:41;13.53;;;4.90;;
4323;SDS011;2175;51.018;6.994;2022-07-03T13:10:07;8.00;;;3.03;;
4323;SDS011;2175;51.018;6.994;2022-07-03T13:12:34;5.93;;;2.47;;
4323;SDS011;2175;51.018;6.994;2022-07-03T13:15:03;3.60;;;1.93;;
4323;SDS011;2175;51.018;6.994;2022-07-03T13:20:21;10.37;;;2.97;;
4323;SDS011;2175;51.018;6.994;2022-07-03T13:22:48;14.90;;;2.63;;
4323;SDS011;2175;51.018;6.994;2022-07-03T13:25:17;9.10;;;3.10;;
4323;SDS011;2175;51.018;6.994;2022-07-03T13:27:43;4.90;;;2.33;;
4323;SDS011;2175;51.018;6.994;2022-07-03T13:30:10;6.90;;;2.60;;
4323;SDS011;2175;51.018;6.994;2022-07-03T13:32:39;11.87;;;2.77;;
4323;SDS011;2175;51.018;6.994;2022-07-03T13:35:05;10.30;;;2.50;;
4323;SDS011;2175;51.018;6.994;2022-07-03T13:37:31;4.20;;;2.50;;
4323;SDS011;2175;51.018;6.994;2022-07-03T13:39:57;8.20;;;2.97;;
4323;SDS011;2175;51.018;6.994;2022-07-03T13:42:23;6.00;;;2.40;;
4323;SDS011;2175;51.018;6.994;2022-07-03T13:44:49;8.30;;;2.80;;
4323;SDS011;2175;51.018;6.994;2022-07-03T13:47:17;7.73;;;2.47;;
4323;SDS011;2175;51.018;6.994;2022-07-03T13:49:43;3.90;;;2.20;;
4323;SDS011;2175;51.018;6.994;2022-07-03T13:52:08;10.60;;;3.10;;
4323;SDS011;2175;51.018;6.994;2022-07-03T13:54:34;7.70;;;2.97;;
4323;SDS011;2175;51.018;6.994;2022-07-03T13:57:00;7.57;;;2.90;;
4323;SDS011;2175;51.018;6.994;2022-07-03T13:59:26;4.93;;;2.47;;
4323;SDS011;2175;51.018;6.994;2022-07-03T14:01:52;6.37;;;2.20;;
4323;SDS011;2175;51.018;6.994;2022-07-03T14:04:18;3.60;;;1.90;;
4323;SDS011;2175;51.018;6.994;2022-07-03T14:06:43;6.00;;;2.90;;
4323;SDS011;2175;51.018;6.994;2022-07-03T14:09:09;5.07;;;2.30;;
4323;SDS011;2175;51.018;6.994;2022-07-03T14:11:34;4.77;;;1.80;;
4323;SDS011;2175;51.018;6.994;2022-07-03T14:14:00;13.60;;;2.43;;
4323;SDS011;2175;51.018;6.994;2022-07-03T14:16:25;3.47;;;1.83;;
4323;SDS011;2175;51.018;6.994;2022-07-03T14:18:51;2.97;;;1.83;;
4323;SDS011;2175;51.018;6.994;2022-07-03T14:21:16;4.00;;;1.90;;
4323;SDS011;2175;51.018;6.994;2022-07-03T14:23:42;8.10;;;2.10;;
4323;SDS011;2175;51.018;6.994;2022-07-03T14:26:08;5.07;;;2.67;;
4323;SDS011;2175;51.018;6.994;2022-07-03T14:28:33;11.33;;;3.40;;
4323;SDS011;2175;51.018;6.994;2022-07-03T14:31:17;10.33;;;2.80;;
4323;SDS011;2175;51.018;6.994;2022-07-03T14:33:49;6.50;;;2.97;;
4323;SDS011;2175;51.018;6.994;2022-07-03T14:36:16;3.37;;;2.00;;
4323;SDS011;2175;51.018;6.994;2022-07-03T14:38:41;4.10;;;2.23;;
4323;SDS011;2175;51.018;6.994;2022-07-03T14:41:07;4.13;;;2.13;;
4323;SDS011;2175;51.018;6.994;2022-07-03T14:43:33;6.20;;;2.87;;
4323;SDS011;2175;51.018;6.994;2022-07-03T14:45:58;4.70;;;2.10;;
4323;SDS011;2175;51.018;6.994;2022-07-03T14:48:24;4.97;;;1.70;;
4323;SDS011;2175;51.018;6.994;2022-07-03T14:50:52;5.87;;;2.00;;
4323;SDS011;2175;51.018;6.994;2022-07-03T14:53:18;8.50;;;2.47;;
4323;SDS011;2175;51.018;6.994;2022-07-03T14:55:45;6.13;;;2.70;;
4323;SDS011;2175;51.018;6.994;2022-07-03T14:58:18;7.37;;;3.00;;
4323;SDS011;2175;51.018;6.994;2022-07-03T15:03:31;13.27;;;2.40;;
4323;SDS011;2175;51.018;6.994;2022-07-03T15:05:59;6.50;;;2.60;;
4323;SDS011;2175;51.018;6.994;2022-07-03T15:10:55;5.73;;;2.23;;
4323;SDS011;2175;51.018;6.994;2022-07-03T15:13:26;11.57;;;6.10;;
4323;SDS011;2175;51.018;6.994;2022-07-03T15:15:52;9.70;;;4.50;;
4323;SDS011;2175;51.018;6.994;2022-07-03T15:18:19;18.17;;;5.47;;
4323;SDS011;2175;51.018;6.994;2022-07-03T15:20:45;12.10;;;4.10;;
4323;SDS011;2175;51.018;6.994;2022-07-03T15:23:12;8.63;;;3.03;;
4323;SDS011;2175;51.018;6.994;2022-07-03T15:25:38;7.03;;;2.10;;
4323;SDS011;2175;51.018;6.994;2022-07-03T15:28:05;8.97;;;2.20;;
4323;SDS011;2175;51.018;6.994;2022-07-03T15:30:35;4.70;;;2.10;;
4323;SDS011;2175;51.018;6.994;2022-07-03T15:33:01;9.43;;;2.83;;
4323;SDS011;2175;51.018;6.994;2022-07-03T15:35:27;2.83;;;2.00;;
4323;SDS011;2175;51.018;6.994;2022-07-03T15:40:35;7.60;;;2.00;;
4323;SDS011;2175;51.018;6.994;2022-07-03T15:46:36;8.53;;;1.90;;
4323;SDS011;2175;51.018;6.994;2022-07-03T15:49:25;3.50;;;1.80;;
4323;SDS011;2175;51.018;6.994;2022-07-03T15:54:36;4.00;;;2.00;;
4323;SDS011;2175;51.018;6.994;2022-07-03T15:57:09;6.73;;;2.30;;
4323;SDS011;2175;51.018;6.994;2022-07-03T15:59:57;2.70;;;1.93;;
4323;SDS011;2175;51.018;6.994;2022-07-03T16:05:26;6.20;;;2.50;;
4323;SDS011;2175;51.018;6.994;2022-07-03T16:07:58;5.80;;;2.53;;
4323;SDS011;2175;51.018;6.994;2022-07-03T16:10:26;6.30;;;2.17;;
4323;SDS011;2175;51.018;6.994;2022-07-03T16:12:52;4.90;;;2.27;;
4323;SDS011;2175;51.018;6.994;2022-07-03T16:15:21;11.90;;;2.90;;
4323;SDS011;2175;51.018;6.994;2022-07-03T16:17:48;7.50;;;2.33;;
4323;SDS011;2175;51.018;6.994;2022-07-03T16:20:18;5.50;;;2.67;;
4323;SDS011;2175;51.018;6.994;2022-07-03T16:22:45;12.00;;;2.77;;
4323;SDS011;2175;51.018;6.994;2022-07-03T16:25:12;6.93;;;2.33;;
4323;SDS011;2175;51.018;6.994;2022-07-03T16:27:37;7.07;;;2.47;;
4323;SDS011;2175;51.018;6.994;2022-07-03T16:30:04;7.30;;;2.40;;
4323;SDS011;2175;51.018;6.994;2022-07-03T16:32:34;5.13;;;2.63;;
4323;SDS011;2175;51.018;6.994;2022-07-03T16:35:03;5.13;;;2.53;;
4323;SDS011;2175;51.018;6.994;2022-07-03T16:40:10;4.97;;;2.00;;
4323;SDS011;2175;51.018;6.994;2022-07-03T16:42:36;6.03;;;2.40;;
4323;SDS011;2175;51.018;6.994;2022-07-03T16:45:06;5.10;;;2.67;;
4323;SDS011;2175;51.018;6.994;2022-07-03T16:47:43;13.20;;;2.60;;
4323;SDS011;2175;51.018;6.994;2022-07-03T16:50:20;5.13;;;2.33;;
4323;SDS011;2175;51.018;6.994;2022-07-03T16:52:48;10.37;;;3.40;;
4323;SDS011;2175;51.018;6.994;2022-07-03T16:55:16;5.63;;;2.57;;
4323;SDS011;2175;51.018;6.994;2022-07-03T16:57:53;5.97;;;2.63;;
4323;SDS011;2175;51.018;6.994;2022-07-03T17:00:25;5.27;;;2.50;;
4323;SDS011;2175;51.018;6.994;2022-07-03T17:02:54;7.23;;;2.43;;
4323;SDS011;2175;51.018;6.994;2022-07-03T17:05:21;3.63;;;2.03;;
4323;SDS011;2175;51.018;6.994;2022-07-03T17:07:50;6.33;;;2.47;;
4323;SDS011;2175;51.018;6.994;2022-07-03T17:10:20;9.20;;;2.80;;
4323;SDS011;2175;51.018;6.994;2022-07-03T17:12:51;4.20;;;2.23;;
4323;SDS011;2175;51.018;6.994;2022-07-03T17:15:19;5.83;;;2.70;;